createdAt,value
2022-09-03T00:00:35.384Z,0.00
2022-09-03T00:01:35.341Z,0.00
2022-09-03T00:02:35.270Z,0.00
2022-09-03T00:03:35.150Z,0.00
2022-09-03T00:04:35.067Z,0.00
2022-09-03T00:05:34.984Z,0.00
2022-09-03T00:06:34.911Z,0.00
2022-09-03T00:07:34.835Z,0.00
2022-09-03T00:08:34.799Z,0.00
2022-09-03T00:09:34.671Z,0.00
2022-09-03T00:10:34.593Z,0.00
2022-09-03T00:11:34.515Z,0.00
2022-09-03T00:12:34.438Z,0.00
2022-09-03T00:13:34.353Z,0.00
2022-09-03T00:14:34.278Z,0.00
2022-09-03T00:15:34.228Z,0.00
2022-09-03T00:16:34.122Z,0.00
2022-09-03T00:17:34.050Z,0.00
2022-09-03T00:18:33.966Z,0.00
2022-09-03T00:19:33.888Z,0.00
2022-09-03T00:20:33.808Z,0.00
2022-09-03T00:21:33.728Z,0.00
2022-09-03T00:22:33.650Z,0.00
2022-09-03T00:23:33.567Z,0.00
2022-09-03T00:24:33.492Z,0.00
2022-09-03T00:25:33.414Z,0.00
2022-09-03T00:26:33.335Z,0.00
2022-09-03T00:27:33.252Z,0.00
2022-09-03T00:28:33.175Z,0.00
2022-09-03T00:29:33.098Z,0.00
2022-09-03T00:30:33.024Z,0.00
2022-09-03T00:31:33.118Z,0.00
2022-09-03T00:32:32.860Z,0.00
2022-09-03T00:33:32.779Z,0.00
2022-09-03T00:34:32.703Z,0.00
2022-09-03T00:35:32.623Z,0.00
2022-09-03T00:36:32.550Z,0.00
2022-09-03T00:37:37.110Z,0.00
2022-09-03T00:38:32.386Z,0.00
2022-09-03T00:39:32.389Z,0.00
2022-09-03T00:40:32.225Z,0.00
2022-09-03T00:41:32.152Z,0.00
2022-09-03T00:42:32.073Z,0.00
2022-09-03T00:43:31.988Z,0.00
2022-09-03T00:44:31.914Z,0.00
2022-09-03T00:45:31.834Z,0.00
2022-09-03T00:46:31.804Z,0.00
2022-09-03T00:47:31.680Z,0.00
2022-09-03T00:48:31.849Z,0.00
2022-09-03T00:49:31.515Z,0.00
2022-09-03T00:50:31.446Z,0.00
2022-09-03T00:51:31.356Z,0.00
2022-09-03T00:52:33.688Z,0.00
2022-09-03T00:53:31.199Z,0.00
2022-09-03T00:54:31.125Z,0.00
2022-09-03T00:55:31.046Z,0.00
2022-09-03T00:56:30.963Z,0.00
2022-09-03T00:57:30.880Z,0.00
2022-09-03T00:58:30.811Z,0.00
2022-09-03T00:59:30.721Z,0.00
2022-09-03T01:00:30.650Z,0.00
2022-09-03T01:01:30.720Z,0.00
2022-09-03T01:02:30.588Z,0.00
2022-09-03T01:03:30.409Z,0.00
2022-09-03T01:04:30.331Z,0.00
2022-09-03T01:05:30.251Z,0.00
2022-09-03T01:06:30.169Z,0.00
2022-09-03T01:07:30.092Z,0.00
2022-09-03T01:08:30.017Z,0.00
2022-09-03T01:09:29.932Z,0.00
2022-09-03T01:10:29.853Z,0.00
2022-09-03T01:11:29.776Z,0.00
2022-09-03T01:12:29.709Z,0.00
2022-09-03T01:13:29.618Z,0.00
2022-09-03T01:14:29.541Z,0.00
2022-09-03T01:15:29.530Z,0.00
2022-09-03T01:16:29.382Z,0.00
2022-09-03T01:17:29.310Z,0.00
2022-09-03T01:18:29.222Z,0.00
2022-09-03T01:19:29.145Z,0.00
2022-09-03T01:20:29.066Z,0.00
2022-09-03T01:21:28.984Z,0.00
2022-09-03T01:22:28.906Z,0.00
2022-09-03T01:23:28.828Z,0.00
2022-09-03T01:24:28.748Z,0.00
2022-09-03T01:25:28.668Z,0.00
2022-09-03T01:26:28.585Z,0.00
2022-09-03T01:27:28.509Z,0.00
2022-09-03T01:28:28.442Z,0.00
2022-09-03T01:29:28.350Z,0.00
2022-09-03T01:30:28.271Z,0.00
2022-09-03T01:31:28.221Z,0.00
2022-09-03T01:32:28.114Z,0.00
2022-09-03T01:33:28.032Z,0.00
2022-09-03T01:34:27.959Z,0.00
2022-09-03T01:35:27.878Z,0.00
2022-09-03T01:36:27.797Z,0.00
2022-09-03T01:37:27.719Z,0.00
2022-09-03T01:38:27.636Z,0.00
2022-09-03T01:39:27.684Z,0.00
2022-09-03T01:40:27.479Z,0.00
2022-09-03T01:41:27.400Z,0.00
2022-09-03T01:42:27.323Z,0.00
2022-09-03T01:43:27.241Z,0.00
2022-09-03T01:44:27.163Z,0.00
2022-09-03T01:45:27.079Z,0.00
2022-09-03T01:46:27.056Z,0.00
2022-09-03T01:47:26.930Z,0.00
2022-09-03T01:48:26.850Z,0.00
2022-09-03T01:49:26.763Z,0.00
2022-09-03T01:50:26.684Z,0.00
2022-09-03T01:51:26.613Z,0.00
2022-09-03T01:52:26.525Z,0.00
2022-09-03T01:53:26.444Z,0.00
2022-09-03T01:54:26.378Z,0.00
2022-09-03T01:55:26.294Z,0.00
2022-09-03T01:56:26.212Z,0.00
2022-09-03T01:57:35.461Z,0.00
2022-09-03T01:58:26.051Z,0.00
2022-09-03T01:59:25.968Z,0.00
2022-09-03T02:00:25.893Z,0.00
2022-09-03T02:01:25.864Z,0.00
2022-09-03T02:02:25.906Z,0.00
2022-09-03T02:03:25.653Z,0.00
2022-09-03T02:04:25.572Z,0.00
2022-09-03T02:05:25.499Z,0.00
2022-09-03T02:06:25.416Z,0.00
2022-09-03T02:07:25.340Z,0.00
2022-09-03T02:08:25.465Z,0.00
2022-09-03T02:09:25.178Z,0.00
2022-09-03T02:10:25.102Z,0.00
2022-09-03T02:11:25.018Z,0.00
2022-09-03T02:12:24.945Z,0.00
2022-09-03T02:13:24.860Z,0.00
2022-09-03T02:14:24.782Z,0.00
2022-09-03T02:15:24.787Z,0.00
2022-09-03T02:16:24.626Z,0.00
2022-09-03T02:17:24.544Z,0.00
2022-09-03T02:18:24.517Z,0.00
2022-09-03T02:19:24.386Z,0.00
2022-09-03T02:20:24.303Z,0.00
2022-09-03T02:21:24.229Z,0.00
2022-09-03T02:22:24.147Z,0.00
2022-09-03T02:23:28.257Z,0.00
2022-09-03T02:24:23.987Z,0.00
2022-09-03T02:25:23.904Z,0.00
2022-09-03T02:26:23.841Z,0.00
2022-09-03T02:27:23.750Z,0.00
2022-09-03T02:28:23.701Z,0.00
2022-09-03T02:29:23.595Z,0.00
2022-09-03T02:30:23.510Z,0.00
2022-09-03T02:31:23.483Z,0.00
2022-09-03T02:32:23.350Z,0.00
2022-09-03T02:33:23.274Z,0.00
2022-09-03T02:34:23.209Z,0.00
2022-09-03T02:35:23.112Z,0.00
2022-09-03T02:36:23.029Z,0.00
2022-09-03T02:37:22.955Z,0.00
2022-09-03T02:38:22.971Z,0.00
2022-09-03T02:39:22.845Z,0.00
2022-09-03T02:40:22.716Z,0.00
2022-09-03T02:41:22.638Z,0.00
2022-09-03T02:42:22.556Z,0.00
2022-09-03T02:43:26.005Z,0.00
2022-09-03T02:44:22.392Z,0.00
2022-09-03T02:45:22.314Z,0.00
2022-09-03T02:46:22.357Z,0.00
2022-09-03T02:47:22.164Z,0.00
2022-09-03T02:48:22.115Z,0.00
2022-09-03T02:49:21.997Z,0.00
2022-09-03T02:50:21.919Z,0.00
2022-09-03T02:51:21.840Z,0.00
2022-09-03T02:52:21.761Z,0.00
2022-09-03T02:53:21.677Z,0.00
2022-09-03T02:54:21.597Z,0.00
2022-09-03T02:55:21.524Z,0.00
2022-09-03T02:56:21.441Z,0.00
2022-09-03T02:57:27.493Z,0.00
2022-09-03T02:58:21.360Z,0.00
2022-09-03T02:59:21.207Z,0.00
2022-09-03T03:00:21.120Z,0.00
2022-09-03T03:01:23.818Z,0.00
2022-09-03T03:02:21.038Z,0.00
2022-09-03T03:03:20.882Z,0.00
2022-09-03T03:04:20.799Z,0.00
2022-09-03T03:05:20.731Z,0.00
2022-09-03T03:06:20.641Z,0.00
2022-09-03T03:07:20.560Z,0.00
2022-09-03T03:08:20.486Z,0.00
2022-09-03T03:09:20.404Z,0.00
2022-09-03T03:10:20.325Z,0.00
2022-09-03T03:11:20.242Z,0.00
2022-09-03T03:12:20.160Z,0.00
2022-09-03T03:13:20.097Z,0.00
2022-09-03T03:14:20.003Z,0.00
2022-09-03T03:15:19.926Z,0.00
2022-09-03T03:16:19.901Z,0.00
2022-09-03T03:17:19.767Z,0.00
2022-09-03T03:18:19.751Z,0.00
2022-09-03T03:19:19.612Z,0.00
2022-09-03T03:20:19.531Z,0.00
2022-09-03T03:21:19.445Z,0.00
2022-09-03T03:22:19.363Z,0.00
2022-09-03T03:23:19.292Z,0.00
2022-09-03T03:24:19.208Z,0.00
2022-09-03T03:25:19.125Z,0.00
2022-09-03T03:26:19.050Z,0.00
2022-09-03T03:27:18.973Z,0.00
2022-09-03T03:28:19.000Z,0.00
2022-09-03T03:29:18.806Z,0.00
2022-09-03T03:30:18.732Z,0.00
2022-09-03T03:31:18.729Z,0.00
2022-09-03T03:32:18.565Z,0.00
2022-09-03T03:33:18.489Z,0.00
2022-09-03T03:34:18.408Z,0.00
2022-09-03T03:35:18.330Z,0.00
2022-09-03T03:36:18.246Z,0.00
2022-09-03T03:37:18.170Z,0.00
2022-09-03T03:38:18.094Z,0.00
2022-09-03T03:39:18.047Z,0.00
2022-09-03T03:40:17.927Z,0.00
2022-09-03T03:41:17.851Z,0.00
2022-09-03T03:42:17.779Z,0.00
2022-09-03T03:43:17.689Z,0.00
2022-09-03T03:44:17.610Z,0.00
2022-09-03T03:45:17.532Z,0.00
2022-09-03T03:46:17.490Z,0.00
2022-09-03T03:47:17.371Z,0.00
2022-09-03T03:48:17.291Z,0.00
2022-09-03T03:49:17.213Z,0.00
2022-09-03T03:50:17.136Z,0.00
2022-09-03T03:51:17.051Z,0.00
2022-09-03T03:52:16.971Z,0.00
2022-09-03T03:53:16.892Z,0.00
2022-09-03T03:54:17.591Z,0.00
2022-09-03T03:55:16.742Z,0.00
2022-09-03T03:56:16.652Z,0.00
2022-09-03T03:57:16.572Z,0.00
2022-09-03T03:58:16.489Z,0.00
2022-09-03T03:59:16.414Z,0.00
2022-09-03T04:00:16.331Z,0.00
2022-09-03T04:01:16.347Z,0.00
2022-09-03T04:02:16.204Z,0.00
2022-09-03T04:03:16.094Z,0.00
2022-09-03T04:04:16.013Z,0.00
2022-09-03T04:05:15.930Z,0.00
2022-09-03T04:06:15.852Z,0.00
2022-09-03T04:07:15.771Z,0.00
2022-09-03T04:08:15.730Z,0.00
2022-09-03T04:09:15.614Z,0.00
2022-09-03T04:10:15.529Z,0.00
2022-09-03T04:11:15.454Z,0.00
2022-09-03T04:12:15.371Z,0.00
2022-09-03T04:13:15.291Z,0.00
2022-09-03T04:14:15.211Z,0.00
2022-09-03T04:15:15.138Z,0.00
2022-09-03T04:16:15.090Z,0.00
2022-09-03T04:17:14.972Z,4.00
2022-09-03T04:18:14.940Z,0.00
2022-09-03T04:19:14.812Z,4.00
2022-09-03T04:20:14.731Z,0.00
2022-09-03T04:21:14.652Z,4.00
2022-09-03T04:22:14.573Z,0.00
2022-09-03T04:23:14.492Z,4.00
2022-09-03T04:24:14.411Z,4.00
2022-09-03T04:25:14.339Z,4.00
2022-09-03T04:26:14.249Z,4.00
2022-09-03T04:27:14.171Z,4.00
2022-09-03T04:28:14.092Z,4.00
2022-09-03T04:29:14.014Z,4.00
2022-09-03T04:30:13.944Z,8.00
2022-09-03T04:31:13.906Z,8.00
2022-09-03T04:32:13.774Z,12.00
2022-09-03T04:33:16.173Z,12.00
2022-09-03T04:34:13.616Z,8.00
2022-09-03T04:35:13.538Z,12.00
2022-09-03T04:36:13.454Z,12.00
2022-09-03T04:37:13.377Z,12.00
2022-09-03T04:38:13.296Z,12.00
2022-09-03T04:39:13.218Z,16.00
2022-09-03T04:40:13.132Z,20.00
2022-09-03T04:41:13.061Z,20.00
2022-09-03T04:42:12.972Z,20.00
2022-09-03T04:43:12.897Z,24.00
2022-09-03T04:44:12.822Z,20.00
2022-09-03T04:45:12.734Z,24.00
2022-09-03T04:46:16.098Z,24.00
2022-09-03T04:47:12.577Z,24.00
2022-09-03T04:48:12.495Z,28.00
2022-09-03T04:49:12.419Z,28.00
2022-09-03T04:50:12.335Z,28.00
2022-09-03T04:51:12.259Z,32.00
2022-09-03T04:52:12.176Z,32.00
2022-09-03T04:53:12.095Z,36.00
2022-09-03T04:54:12.021Z,36.00
2022-09-03T04:55:11.937Z,40.00
2022-09-03T04:56:11.865Z,40.00
2022-09-03T04:57:11.781Z,44.00
2022-09-03T04:58:11.701Z,44.00
2022-09-03T04:59:11.628Z,44.00
2022-09-03T05:00:11.538Z,48.00
2022-09-03T05:01:11.554Z,52.00
2022-09-03T05:02:11.434Z,52.00
2022-09-03T05:03:11.299Z,52.00
2022-09-03T05:04:11.221Z,56.00
2022-09-03T05:05:11.141Z,56.00
2022-09-03T05:06:11.066Z,56.00
2022-09-03T05:07:10.986Z,64.00
2022-09-03T05:08:10.903Z,64.00
2022-09-03T05:09:10.822Z,68.00
2022-09-03T05:10:10.754Z,68.00
2022-09-03T05:11:10.668Z,72.00
2022-09-03T05:12:10.586Z,76.00
2022-09-03T05:13:10.503Z,80.00
2022-09-03T05:14:10.422Z,84.00
2022-09-03T05:15:10.342Z,88.00
2022-09-03T05:16:10.325Z,92.00
2022-09-03T05:17:10.184Z,96.00
2022-09-03T05:18:10.108Z,100.00
2022-09-03T05:19:10.024Z,108.00
2022-09-03T05:20:09.951Z,112.00
2022-09-03T05:21:09.870Z,116.00
2022-09-03T05:22:09.786Z,120.00
2022-09-03T05:23:09.714Z,124.00
2022-09-03T05:24:09.627Z,128.00
2022-09-03T05:25:09.651Z,132.00
2022-09-03T05:26:10.953Z,132.00
2022-09-03T05:27:09.389Z,136.00
2022-09-03T05:28:09.308Z,140.00
2022-09-03T05:29:09.226Z,148.00
2022-09-03T05:30:09.148Z,156.00
2022-09-03T05:31:09.072Z,160.00
2022-09-03T05:32:08.993Z,160.00
2022-09-03T05:33:08.919Z,168.00
2022-09-03T05:34:08.828Z,172.00
2022-09-03T05:35:09.299Z,180.00
2022-09-03T05:36:08.672Z,184.00
2022-09-03T05:37:08.593Z,188.00
2022-09-03T05:38:08.508Z,192.00
2022-09-03T05:39:08.432Z,196.00
2022-09-03T05:40:08.356Z,200.00
2022-09-03T05:41:08.282Z,212.00
2022-09-03T05:42:08.192Z,216.00
2022-09-03T05:43:08.705Z,216.00
2022-09-03T05:44:08.037Z,216.00
2022-09-03T05:45:07.953Z,224.00
2022-09-03T05:46:07.924Z,236.00
2022-09-03T05:47:07.799Z,248.00
2022-09-03T05:48:07.716Z,260.00
2022-09-03T05:49:07.649Z,268.00
2022-09-03T05:50:07.555Z,272.00
2022-09-03T05:51:07.488Z,276.00
2022-09-03T05:52:07.396Z,272.00
2022-09-03T05:53:07.319Z,272.00
2022-09-03T05:54:07.239Z,264.00
2022-09-03T05:55:09.629Z,260.00
2022-09-03T05:56:07.077Z,256.00
2022-09-03T05:57:07.004Z,248.00
2022-09-03T05:58:06.918Z,236.00
2022-09-03T05:59:06.840Z,228.00
2022-09-03T06:00:06.763Z,220.00
2022-09-03T06:01:06.688Z,220.00
2022-09-03T06:02:06.674Z,220.00
2022-09-03T06:03:06.623Z,224.00
2022-09-03T06:04:06.443Z,224.00
2022-09-03T06:05:06.367Z,224.00
2022-09-03T06:06:06.283Z,228.00
2022-09-03T06:07:06.209Z,224.00
2022-09-03T06:08:06.128Z,220.00
2022-09-03T06:09:06.052Z,224.00
2022-09-03T06:10:05.983Z,220.00
2022-09-03T06:11:05.891Z,224.00
2022-09-03T06:12:05.813Z,224.00
2022-09-03T06:13:05.728Z,236.00
2022-09-03T06:14:05.657Z,240.00
2022-09-03T06:15:05.575Z,240.00
2022-09-03T06:16:05.541Z,252.00
2022-09-03T06:17:05.411Z,252.00
2022-09-03T06:18:05.341Z,268.00
2022-09-03T06:19:05.254Z,284.00
2022-09-03T06:20:05.180Z,292.00
2022-09-03T06:21:05.099Z,300.00
2022-09-03T06:22:05.016Z,316.00
2022-09-03T06:23:04.939Z,332.00
2022-09-03T06:24:04.862Z,332.00
2022-09-03T06:25:04.782Z,332.00
2022-09-03T06:26:05.619Z,332.00
2022-09-03T06:27:04.625Z,312.00
2022-09-03T06:28:04.543Z,332.00
2022-09-03T06:29:04.463Z,336.00
2022-09-03T06:30:04.385Z,348.00
2022-09-03T06:31:04.308Z,356.00
2022-09-03T06:32:04.275Z,368.00
2022-09-03T06:33:04.148Z,376.00
2022-09-03T06:34:04.459Z,376.00
2022-09-03T06:35:03.998Z,372.00
2022-09-03T06:36:08.533Z,372.00
2022-09-03T06:37:03.830Z,368.00
2022-09-03T06:38:03.753Z,380.00
2022-09-03T06:39:03.676Z,396.00
2022-09-03T06:40:03.665Z,404.00
2022-09-03T06:41:03.521Z,416.00
2022-09-03T06:42:03.441Z,428.00
2022-09-03T06:43:03.357Z,440.00
2022-09-03T06:44:03.606Z,456.00
2022-09-03T06:45:03.205Z,468.00
2022-09-03T06:46:03.190Z,480.00
2022-09-03T06:47:03.041Z,476.00
2022-09-03T06:48:02.961Z,472.00
2022-09-03T06:49:02.895Z,456.00
2022-09-03T06:50:02.809Z,376.00
2022-09-03T06:51:02.729Z,368.00
2022-09-03T06:52:02.648Z,372.00
2022-09-03T06:53:02.568Z,436.00
2022-09-03T06:54:02.498Z,472.00
2022-09-03T06:55:02.409Z,492.00
2022-09-03T06:56:02.332Z,412.00
2022-09-03T06:57:02.255Z,472.00
2022-09-03T06:58:02.179Z,512.00
2022-09-03T06:59:02.097Z,528.00
2022-09-03T07:00:02.021Z,504.00
2022-09-03T07:01:02.096Z,552.00
2022-09-03T07:02:01.984Z,608.00
2022-09-03T07:03:01.781Z,580.00
2022-09-03T07:04:01.707Z,620.00
2022-09-03T07:05:01.623Z,520.00
2022-09-03T07:06:01.548Z,544.00
2022-09-03T07:07:01.467Z,688.00
2022-09-03T07:08:01.394Z,768.00
2022-09-03T07:09:01.311Z,800.00
2022-09-03T07:10:01.232Z,796.00
2022-09-03T07:11:01.160Z,696.00
2022-09-03T07:12:01.081Z,720.00
2022-09-03T07:13:00.997Z,752.00
2022-09-03T07:14:00.922Z,852.00
2022-09-03T07:15:00.837Z,804.00
2022-09-03T07:16:00.810Z,792.00
2022-09-03T07:17:00.683Z,744.00
2022-09-03T07:18:00.607Z,600.00
2022-09-03T07:19:00.530Z,556.00
2022-09-03T07:20:00.454Z,536.00
2022-09-03T07:21:00.373Z,548.00
2022-09-03T07:22:00.295Z,592.00
2022-09-03T07:23:00.219Z,632.00
2022-09-03T07:24:00.135Z,664.00
2022-09-03T07:25:00.157Z,664.00
2022-09-03T07:26:00.031Z,652.00
2022-09-03T07:26:59.903Z,592.00
2022-09-03T07:27:59.824Z,544.00
2022-09-03T07:28:59.765Z,516.00
2022-09-03T07:29:59.674Z,508.00
2022-09-03T07:30:59.591Z,508.00
2022-09-03T07:31:59.560Z,512.00
2022-09-03T07:32:59.431Z,516.00
2022-09-03T07:33:59.356Z,520.00
2022-09-03T07:34:59.276Z,544.00
2022-09-03T07:35:59.205Z,584.00
2022-09-03T07:36:59.123Z,632.00
2022-09-03T07:37:59.044Z,672.00
2022-09-03T07:38:58.965Z,676.00
2022-09-03T07:39:58.956Z,664.00
2022-09-03T07:40:58.812Z,632.00
2022-09-03T07:41:58.736Z,540.00
2022-09-03T07:42:58.656Z,440.00
2022-09-03T07:43:58.591Z,412.00
2022-09-03T07:44:58.502Z,460.00
2022-09-03T07:45:58.423Z,512.00
2022-09-03T07:46:58.383Z,548.00
2022-09-03T07:47:58.267Z,588.00
2022-09-03T07:48:58.188Z,640.00
2022-09-03T07:49:58.116Z,696.00
2022-09-03T07:50:58.036Z,812.00
2022-09-03T07:51:57.955Z,620.00
2022-09-03T07:52:57.878Z,608.00
2022-09-03T07:53:57.801Z,604.00
2022-09-03T07:54:57.736Z,580.00
2022-09-03T07:55:57.651Z,560.00
2022-09-03T07:56:57.619Z,516.00
2022-09-03T07:57:57.492Z,500.00
2022-09-03T07:58:57.425Z,508.00
2022-09-03T07:59:57.342Z,516.00
2022-09-03T08:00:57.369Z,528.00
2022-09-03T08:01:57.186Z,532.00
2022-09-03T08:02:57.106Z,536.00
2022-09-03T08:03:57.066Z,556.00
2022-09-03T08:04:56.956Z,576.00
2022-09-03T08:05:56.877Z,592.00
2022-09-03T08:06:56.798Z,608.00
2022-09-03T08:07:56.715Z,620.00
2022-09-03T08:08:58.755Z,636.00
2022-09-03T08:09:56.913Z,652.00
2022-09-03T08:10:56.487Z,672.00
2022-09-03T08:11:56.407Z,688.00
2022-09-03T08:12:56.328Z,716.00
2022-09-03T08:13:56.254Z,752.00
2022-09-03T08:14:56.177Z,804.00
2022-09-03T08:15:56.192Z,1136.00
2022-09-03T08:16:56.017Z,1024.00
2022-09-03T08:17:55.943Z,1160.00
2022-09-03T08:18:55.866Z,1672.00
2022-09-03T08:19:55.791Z,1876.00
2022-09-03T08:20:55.714Z,1024.00
2022-09-03T08:21:55.638Z,1000.00
2022-09-03T08:22:55.666Z,1104.00
2022-09-03T08:23:55.484Z,1792.00
2022-09-03T08:24:55.403Z,1964.00
2022-09-03T08:25:55.329Z,1500.00
2022-09-03T08:26:55.249Z,1348.00
2022-09-03T08:27:55.171Z,1152.00
2022-09-03T08:28:55.094Z,1012.00
2022-09-03T08:29:55.018Z,960.00
2022-09-03T08:30:54.939Z,840.00
2022-09-03T08:31:54.899Z,800.00
2022-09-03T08:32:54.789Z,824.00
2022-09-03T08:33:54.712Z,900.00
2022-09-03T08:34:54.634Z,944.00
2022-09-03T08:35:54.560Z,996.00
2022-09-03T08:36:54.478Z,912.00
2022-09-03T08:37:56.774Z,840.00
2022-09-03T08:38:54.327Z,848.00
2022-09-03T08:39:54.291Z,864.00
2022-09-03T08:40:54.178Z,828.00
2022-09-03T08:41:54.100Z,836.00
2022-09-03T08:42:54.021Z,980.00
2022-09-03T08:43:53.943Z,820.00
2022-09-03T08:44:53.867Z,796.00
2022-09-03T08:45:53.793Z,780.00
2022-09-03T08:46:53.795Z,776.00
2022-09-03T08:47:53.639Z,772.00
2022-09-03T08:48:53.561Z,768.00
2022-09-03T08:49:53.485Z,764.00
2022-09-03T08:50:53.409Z,760.00
2022-09-03T08:51:53.334Z,744.00
2022-09-03T08:52:53.254Z,732.00
2022-09-03T08:53:53.177Z,724.00
2022-09-03T08:54:53.099Z,728.00
2022-09-03T08:55:53.032Z,740.00
2022-09-03T08:56:52.948Z,756.00
2022-09-03T08:57:52.870Z,772.00
2022-09-03T08:58:52.801Z,780.00
2022-09-03T08:59:52.720Z,776.00
2022-09-03T09:00:52.653Z,780.00
2022-09-03T09:01:52.700Z,788.00
2022-09-03T09:02:52.566Z,800.00
2022-09-03T09:03:52.418Z,792.00
2022-09-03T09:04:52.343Z,772.00
2022-09-03T09:05:52.262Z,764.00
2022-09-03T09:06:52.182Z,760.00
2022-09-03T09:07:52.111Z,752.00
2022-09-03T09:08:52.033Z,752.00
2022-09-03T09:09:51.960Z,752.00
2022-09-03T09:10:51.881Z,748.00
2022-09-03T09:11:52.291Z,748.00
2022-09-03T09:12:51.729Z,748.00
2022-09-03T09:13:51.653Z,760.00
2022-09-03T09:14:51.574Z,776.00
2022-09-03T09:15:51.561Z,812.00
2022-09-03T09:16:51.427Z,860.00
2022-09-03T09:17:51.740Z,900.00
2022-09-03T09:18:51.269Z,980.00
2022-09-03T09:19:51.195Z,1096.00
2022-09-03T09:20:51.119Z,1128.00
2022-09-03T09:21:51.046Z,1108.00
2022-09-03T09:22:50.972Z,1176.00
2022-09-03T09:23:50.896Z,1128.00
2022-09-03T09:24:50.815Z,1328.00
2022-09-03T09:25:50.742Z,1492.00
2022-09-03T09:26:50.669Z,1876.00
2022-09-03T09:27:51.117Z,2304.00
2022-09-03T09:28:52.036Z,2380.00
2022-09-03T09:29:51.549Z,2340.00
2022-09-03T09:30:50.395Z,2312.00
2022-09-03T09:31:50.294Z,2296.00
2022-09-03T09:32:50.212Z,2156.00
2022-09-03T09:33:50.136Z,1468.00
2022-09-03T09:34:52.599Z,1844.00
2022-09-03T09:35:49.989Z,1616.00
2022-09-03T09:36:49.909Z,1584.00
2022-09-03T09:37:49.835Z,1440.00
2022-09-03T09:38:49.756Z,1364.00
2022-09-03T09:39:49.703Z,1092.00
2022-09-03T09:40:49.616Z,1104.00
2022-09-03T09:41:49.532Z,1296.00
2022-09-03T09:42:49.461Z,1788.00
2022-09-03T09:43:49.379Z,1468.00
2022-09-03T09:44:49.304Z,1304.00
2022-09-03T09:45:49.229Z,996.00
2022-09-03T09:46:54.083Z,1460.00
2022-09-03T09:47:49.079Z,1460.00
2022-09-03T09:48:49.004Z,1692.00
2022-09-03T09:49:48.931Z,1200.00
2022-09-03T09:50:48.852Z,1616.00
2022-09-03T09:51:48.787Z,1768.00
2022-09-03T09:52:50.738Z,1772.00
2022-09-03T09:53:48.629Z,1748.00
2022-09-03T09:54:48.555Z,2084.00
2022-09-03T09:55:48.478Z,3044.00
2022-09-03T09:56:48.424Z,2224.00
2022-09-03T09:57:48.327Z,2416.00
2022-09-03T09:58:48.257Z,1628.00
2022-09-03T09:59:48.184Z,1836.00
2022-09-03T10:00:48.112Z,1296.00
2022-09-03T10:01:48.090Z,1120.00
2022-09-03T10:02:48.024Z,1036.00
2022-09-03T10:03:47.882Z,1168.00
2022-09-03T10:04:47.805Z,1360.00
2022-09-03T10:05:47.731Z,2636.00
2022-09-03T10:06:47.658Z,1852.00
2022-09-03T10:07:47.587Z,2012.00
2022-09-03T10:08:47.505Z,2576.00
2022-09-03T10:09:47.437Z,2124.00
2022-09-03T10:10:47.357Z,1752.00
2022-09-03T10:11:47.287Z,2104.00
2022-09-03T10:12:47.214Z,1472.00
2022-09-03T10:13:47.139Z,2084.00
2022-09-03T10:14:47.065Z,1532.00
2022-09-03T10:15:47.049Z,1616.00
2022-09-03T10:16:46.912Z,1376.00
2022-09-03T10:17:46.845Z,2056.00
2022-09-03T10:18:46.765Z,2276.00
2022-09-03T10:19:46.694Z,2304.00
2022-09-03T10:20:46.620Z,2340.00
2022-09-03T10:21:46.556Z,2692.00
2022-09-03T10:22:56.478Z,2764.00
2022-09-03T10:23:46.399Z,2904.00
2022-09-03T10:24:46.334Z,2824.00
2022-09-03T10:25:46.248Z,2224.00
2022-09-03T10:26:46.176Z,1924.00
2022-09-03T10:27:46.103Z,2828.00
2022-09-03T10:28:46.025Z,2364.00
2022-09-03T10:29:45.956Z,1636.00
2022-09-03T10:30:45.895Z,1544.00
2022-09-03T10:31:45.807Z,2616.00
2022-09-03T10:32:48.373Z,2712.00
2022-09-03T10:33:45.680Z,1704.00
2022-09-03T10:34:45.622Z,1200.00
2022-09-03T10:35:45.512Z,1612.00
2022-09-03T10:36:45.439Z,1168.00
2022-09-03T10:37:45.373Z,976.00
2022-09-03T10:38:45.296Z,1188.00
2022-09-03T10:39:48.886Z,1092.00
2022-09-03T10:40:45.144Z,1092.00
2022-09-03T10:41:45.071Z,1268.00
2022-09-03T10:42:44.997Z,1368.00
2022-09-03T10:43:44.935Z,1488.00
2022-09-03T10:44:44.856Z,2616.00
2022-09-03T10:45:44.780Z,3376.00
2022-09-03T10:46:44.785Z,2852.00
2022-09-03T10:47:44.629Z,2012.00
2022-09-03T10:48:44.669Z,1760.00
2022-09-03T10:49:44.483Z,1460.00
2022-09-03T10:50:44.416Z,1944.00
2022-09-03T10:51:49.348Z,3428.00
2022-09-03T10:52:44.269Z,3344.00
2022-09-03T10:53:44.192Z,2484.00
2022-09-03T10:54:44.134Z,1952.00
2022-09-03T10:55:44.043Z,2296.00
2022-09-03T10:56:43.973Z,1248.00
2022-09-03T10:57:43.900Z,1240.00
2022-09-03T10:58:43.831Z,1296.00
2022-09-03T10:59:43.756Z,1440.00
2022-09-03T11:00:43.678Z,2016.00
2022-09-03T11:01:43.682Z,1800.00
2022-09-03T11:02:43.599Z,2144.00
2022-09-03T11:03:43.466Z,2704.00
2022-09-03T11:04:43.387Z,2500.00
2022-09-03T11:05:43.314Z,2148.00
2022-09-03T11:06:43.244Z,1856.00
2022-09-03T11:07:43.169Z,1324.00
2022-09-03T11:08:43.097Z,1848.00
2022-09-03T11:09:43.023Z,1312.00
2022-09-03T11:10:42.951Z,1492.00
2022-09-03T11:11:42.879Z,1388.00
2022-09-03T11:12:42.806Z,1188.00
2022-09-03T11:13:42.732Z,1176.00
2022-09-03T11:14:42.662Z,1164.00
2022-09-03T11:15:42.603Z,1268.00
2022-09-03T11:16:42.519Z,1912.00
2022-09-03T11:17:42.446Z,1460.00
2022-09-03T11:18:42.371Z,1400.00
2022-09-03T11:19:42.294Z,1520.00
2022-09-03T11:20:42.222Z,1332.00
2022-09-03T11:21:42.148Z,1296.00
2022-09-03T11:22:42.080Z,1704.00
2022-09-03T11:23:42.002Z,2316.00
2022-09-03T11:24:41.935Z,2560.00
2022-09-03T11:25:41.861Z,2128.00
2022-09-03T11:26:41.786Z,1796.00
2022-09-03T11:27:41.721Z,1836.00
2022-09-03T11:28:41.642Z,2492.00
2022-09-03T11:29:41.566Z,1804.00
2022-09-03T11:30:41.543Z,1600.00
2022-09-03T11:31:41.423Z,2628.00
2022-09-03T11:32:41.350Z,2916.00
2022-09-03T11:33:41.280Z,1720.00
2022-09-03T11:34:41.227Z,2176.00
2022-09-03T11:35:41.136Z,2628.00
2022-09-03T11:36:43.695Z,2516.00
2022-09-03T11:37:40.987Z,2752.00
2022-09-03T11:38:40.919Z,2648.00
2022-09-03T11:39:40.901Z,2060.00
2022-09-03T11:40:40.774Z,2276.00
2022-09-03T11:41:40.700Z,2380.00
2022-09-03T11:42:40.646Z,2236.00
2022-09-03T11:43:40.555Z,1764.00
2022-09-03T11:44:42.748Z,2252.00
2022-09-03T11:45:40.544Z,1852.00
2022-09-03T11:46:40.337Z,1900.00
2022-09-03T11:47:40.266Z,1272.00
2022-09-03T11:48:40.199Z,1856.00
2022-09-03T11:49:40.123Z,1304.00
2022-09-03T11:50:40.056Z,1252.00
2022-09-03T11:51:39.977Z,1352.00
2022-09-03T11:52:39.908Z,1232.00
2022-09-03T11:53:39.837Z,1640.00
2022-09-03T11:54:39.762Z,1564.00
2022-09-03T11:55:43.710Z,1320.00
2022-09-03T11:56:39.622Z,1564.00
2022-09-03T11:57:39.553Z,1080.00
2022-09-03T11:58:39.474Z,916.00
2022-09-03T11:59:39.401Z,912.00
2022-09-03T12:00:39.333Z,936.00
2022-09-03T12:01:39.260Z,896.00
2022-09-03T12:02:39.472Z,856.00
2022-09-03T12:03:39.115Z,836.00
2022-09-03T12:04:39.153Z,976.00
2022-09-03T12:05:39.032Z,936.00
2022-09-03T12:06:38.903Z,976.00
2022-09-03T12:07:38.831Z,1068.00
2022-09-03T12:08:38.755Z,1320.00
2022-09-03T12:09:38.683Z,1056.00
2022-09-03T12:10:38.620Z,1052.00
2022-09-03T12:11:38.540Z,1032.00
2022-09-03T12:12:38.482Z,1048.00
2022-09-03T12:13:38.402Z,1004.00
2022-09-03T12:14:38.328Z,964.00
2022-09-03T12:15:38.293Z,948.00
2022-09-03T12:16:38.183Z,940.00
2022-09-03T12:17:38.117Z,928.00
2022-09-03T12:18:38.034Z,900.00
2022-09-03T12:19:37.972Z,860.00
2022-09-03T12:20:37.902Z,812.00
2022-09-03T12:21:37.822Z,768.00
2022-09-03T12:22:37.748Z,732.00
2022-09-03T12:23:37.680Z,708.00
2022-09-03T12:24:38.313Z,696.00
2022-09-03T12:25:37.600Z,696.00
2022-09-03T12:26:37.462Z,712.00
2022-09-03T12:27:37.390Z,728.00
2022-09-03T12:28:37.321Z,744.00
2022-09-03T12:29:37.241Z,752.00
2022-09-03T12:30:37.197Z,760.00
2022-09-03T12:31:41.243Z,760.00
2022-09-03T12:32:37.044Z,764.00
2022-09-03T12:33:36.956Z,764.00
2022-09-03T12:34:36.883Z,756.00
2022-09-03T12:36:36.751Z,732.00
2022-09-03T12:39:00.726Z,728.00
2022-09-03T12:41:22.980Z,732.00
2022-09-03T12:41:36.439Z,736.00
2022-09-03T12:42:36.308Z,736.00
2022-09-03T12:43:38.175Z,732.00